createdAt,value
2023-03-18T00:03:00.033Z,98106.63
2023-03-18T00:06:13.247Z,98111.81
2023-03-18T00:09:15.287Z,98115.31
2023-03-18T00:12:16.938Z,98129.16
2023-03-18T00:15:19.022Z,98126.53
2023-03-18T00:18:20.597Z,98115.28
2023-03-18T00:21:23.354Z,98130.03
2023-03-18T00:24:24.839Z,98119.63
2023-03-18T00:27:26.327Z,98121.38
2023-03-18T00:30:27.844Z,98124.81
2023-03-18T00:33:29.282Z,98123.06
2023-03-18T00:36:30.946Z,98140.44
2023-03-18T00:39:33.106Z,98129.13
2023-03-18T00:42:39.841Z,98127.38
2023-03-18T00:45:41.407Z,98133.50
2023-03-18T00:48:43.362Z,98131.75
2023-03-18T00:51:45.322Z,98127.44
2023-03-18T00:54:47.671Z,98130.03
2023-03-18T00:57:49.156Z,98136.09
2023-03-18T01:00:50.973Z,98144.75
2023-03-18T01:03:52.499Z,98150.81
2023-03-18T01:06:53.966Z,98148.19
2023-03-18T01:09:55.434Z,98142.13
2023-03-18T01:12:57.426Z,98134.34
2023-03-18T01:15:58.922Z,98149.03
2023-03-18T01:19:00.424Z,98143.00
2023-03-18T01:22:02.417Z,98136.94
2023-03-18T01:25:04.095Z,98134.34
2023-03-18T01:28:06.171Z,98130.88
2023-03-18T01:31:08.139Z,98130.00
2023-03-18T01:34:09.633Z,98127.44
2023-03-18T01:37:11.609Z,98124.81
2023-03-18T01:40:13.472Z,98117.03
2023-03-18T01:43:20.668Z,98118.75
2023-03-18T01:46:43.507Z,98116.13
2023-03-18T01:49:48.625Z,98114.41
2023-03-18T01:52:59.397Z,98105.75
2023-03-18T01:56:01.847Z,98114.44
2023-03-18T01:59:03.376Z,98120.47
2023-03-18T02:02:06.945Z,98107.50
2023-03-18T02:05:11.142Z,98107.50
2023-03-18T02:08:12.617Z,98108.38
2023-03-18T02:11:14.158Z,98110.09
2023-03-18T02:14:15.677Z,98124.81
2023-03-18T02:17:19.641Z,98130.03
2023-03-18T02:20:38.658Z,98116.16
2023-03-18T02:24:27.730Z,98129.16
2023-03-18T02:27:30.613Z,98119.63
2023-03-18T02:30:35.303Z,98128.28
2023-03-18T02:33:38.941Z,98129.13
2023-03-18T02:36:41.363Z,98128.31
2023-03-18T02:39:42.885Z,98125.69
2023-03-18T02:42:44.760Z,98124.84
2023-03-18T02:46:07.074Z,98123.94
2023-03-18T02:49:08.671Z,98132.63
2023-03-18T02:52:10.403Z,98130.88
2023-03-18T02:55:12.753Z,98126.56
2023-03-18T02:58:14.216Z,98125.69
2023-03-18T03:01:15.716Z,98128.31
2023-03-18T03:04:17.403Z,98136.09
2023-03-18T03:07:18.876Z,98132.59
2023-03-18T03:10:20.603Z,98136.09
2023-03-18T03:13:22.255Z,98137.84
2023-03-18T03:16:24.111Z,98137.81
2023-03-18T03:19:25.893Z,98142.13
2023-03-18T03:22:27.417Z,98146.47
2023-03-18T03:25:28.904Z,98149.94
2023-03-18T03:28:32.178Z,98157.75
2023-03-18T03:31:34.266Z,98148.22
2023-03-18T03:34:35.778Z,98148.22
2023-03-18T03:37:37.263Z,98144.75
2023-03-18T03:40:38.940Z,98155.16
2023-03-18T03:43:40.489Z,98158.63
2023-03-18T03:46:42.433Z,98165.56
2023-03-18T03:49:43.930Z,98159.50
2023-03-18T03:52:45.447Z,98161.19
2023-03-18T03:55:46.879Z,98157.72
2023-03-18T03:58:48.376Z,98157.75
2023-03-18T04:01:49.828Z,98155.97
2023-03-18T04:04:51.635Z,98154.25
2023-03-18T04:07:53.231Z,98155.13
2023-03-18T04:10:54.797Z,98151.66
2023-03-18T04:13:56.483Z,98154.22
2023-03-18T04:16:59.507Z,98161.97
2023-03-18T04:20:01.298Z,98164.59
2023-03-18T04:23:02.870Z,98164.56
2023-03-18T04:26:05.332Z,98155.03
2023-03-18T04:29:06.819Z,98156.72
2023-03-18T04:32:08.273Z,98164.56
2023-03-18T04:35:11.107Z,98168.03
2023-03-18T04:38:12.777Z,98167.13
2023-03-18T04:41:14.220Z,98161.94
2023-03-18T04:44:17.233Z,98174.94
2023-03-18T04:47:19.621Z,98176.59
2023-03-18T04:50:21.054Z,98169.59
2023-03-18T04:53:22.555Z,98159.16
2023-03-18T04:56:24.129Z,98164.28
2023-03-18T04:59:25.589Z,98156.47
2023-03-18T05:02:27.131Z,98155.63
2023-03-18T05:05:28.612Z,98160.03
2023-03-18T05:08:30.131Z,98158.28
2023-03-18T05:11:31.718Z,98157.34
2023-03-18T05:14:33.198Z,98156.41
2023-03-18T05:17:35.278Z,98145.94
2023-03-18T05:20:36.721Z,98151.09
2023-03-18T05:23:38.695Z,98147.59
2023-03-18T05:26:40.146Z,98153.66
2023-03-18T05:29:41.840Z,98145.00
2023-03-18T05:32:43.444Z,98153.69
2023-03-18T05:35:45.369Z,98152.69
2023-03-18T05:38:47.056Z,98151.00
2023-03-18T05:41:48.544Z,98162.94
2023-03-18T05:44:50.548Z,98160.34
2023-03-18T05:47:52.076Z,98158.63
2023-03-18T05:50:53.528Z,98156.13
2023-03-18T05:53:55.441Z,98157.72
2023-03-18T05:56:56.907Z,98157.75
2023-03-18T05:59:58.406Z,98163.00
2023-03-18T06:03:00.145Z,98166.44
2023-03-18T06:06:01.882Z,98168.06
2023-03-18T06:09:03.926Z,98162.91
2023-03-18T06:12:05.678Z,98165.53
2023-03-18T06:15:10.992Z,98176.88
2023-03-18T06:18:12.981Z,98168.25
2023-03-18T06:21:14.527Z,98164.75
2023-03-18T06:24:16.058Z,98169.16
2023-03-18T06:27:17.523Z,98175.19
2023-03-18T06:30:18.996Z,98175.19
2023-03-18T06:33:20.464Z,98180.56
2023-03-18T06:36:22.487Z,98182.22
2023-03-18T06:39:24.701Z,98177.13
2023-03-18T06:42:26.172Z,98179.72
2023-03-18T06:45:28.288Z,98186.63
2023-03-18T06:48:29.778Z,98188.50
2023-03-18T06:51:31.329Z,98189.34
2023-03-18T06:54:34.297Z,98179.84
2023-03-18T06:57:35.731Z,98181.50
2023-03-18T07:00:37.198Z,98179.09
2023-03-18T07:03:38.870Z,98187.88
2023-03-18T07:06:40.350Z,98182.75
2023-03-18T07:09:43.577Z,98193.16
2023-03-18T07:12:45.104Z,98192.38
2023-03-18T07:15:46.835Z,98196.72
2023-03-18T07:18:48.736Z,98203.69
2023-03-18T07:21:50.441Z,98201.97
2023-03-18T07:24:52.444Z,98208.03
2023-03-18T07:27:54.205Z,98213.22
2023-03-18T07:30:55.791Z,98210.63
2023-03-18T07:33:57.470Z,98208.88
2023-03-18T07:36:58.971Z,98210.59
2023-03-18T07:40:00.453Z,98208.03
2023-03-18T07:43:02.334Z,98216.66
2023-03-18T07:46:04.569Z,98213.00
2023-03-18T07:49:06.071Z,98205.31
2023-03-18T07:52:08.726Z,98202.69
2023-03-18T07:55:10.763Z,98211.13
2023-03-18T07:58:12.354Z,98212.81
2023-03-18T08:01:16.585Z,98221.03
2023-03-18T08:04:19.343Z,98211.78
2023-03-18T08:07:22.977Z,98208.84
2023-03-18T08:10:26.847Z,98211.19
2023-03-18T08:13:28.900Z,98204.84
2023-03-18T08:16:30.447Z,98215.81
2023-03-18T08:19:32.701Z,98214.16
2023-03-18T08:22:34.078Z,98223.63
2023-03-18T08:25:35.782Z,98229.56
2023-03-18T08:28:37.472Z,98227.03
2023-03-18T08:31:39.182Z,98221.47
2023-03-18T08:34:41.485Z,98218.38
2023-03-18T08:37:42.955Z,98225.44
2023-03-18T08:40:44.461Z,98230.03
2023-03-18T08:43:47.050Z,98220.69
2023-03-18T08:46:51.468Z,98228.09
2023-03-18T08:49:53.024Z,98223.56
2023-03-18T08:52:58.153Z,98232.44
2023-03-18T08:56:01.813Z,98220.13
2023-03-18T08:59:04.363Z,98219.91
2023-03-18T09:02:05.841Z,98216.75
2023-03-18T09:05:07.568Z,98228.72
2023-03-18T09:08:11.908Z,98210.44
2023-03-18T09:11:13.787Z,98214.97
2023-03-18T09:14:15.092Z,98214.66
2023-03-18T09:17:16.697Z,98209.53
2023-03-18T09:20:18.304Z,98218.34
2023-03-18T09:23:19.877Z,98217.91
2023-03-18T09:26:21.979Z,98200.44
2023-03-18T09:29:23.854Z,98196.41
2023-03-18T09:32:25.509Z,98204.03
2023-03-18T09:35:29.119Z,98218.94
2023-03-18T09:38:31.533Z,98220.75
2023-03-18T09:42:05.387Z,98214.19
2023-03-18T09:45:16.771Z,98215.81
2023-03-18T09:48:36.980Z,98211.88
2023-03-18T09:51:46.674Z,98221.84
2023-03-18T09:55:04.858Z,98218.69
2023-03-18T09:58:13.604Z,98207.66
2023-03-18T10:01:15.833Z,98199.63
2023-03-18T10:04:28.662Z,98215.94
2023-03-18T10:07:33.851Z,98204.97
2023-03-18T10:10:37.648Z,98192.34
2023-03-18T10:13:44.611Z,98193.19
2023-03-18T10:17:07.292Z,98207.03
2023-03-18T10:20:18.582Z,98202.09
2023-03-18T10:23:42.610Z,98183.91
2023-03-18T10:26:44.015Z,98193.88
2023-03-18T10:30:18.038Z,98182.84
2023-03-18T10:33:23.037Z,98195.72
2023-03-18T10:36:32.072Z,98169.69
2023-03-18T10:39:33.751Z,98173.63
2023-03-18T10:42:35.466Z,98177.66
2023-03-18T10:45:36.960Z,98160.50
2023-03-18T10:48:42.622Z,98185.06
2023-03-18T10:51:47.497Z,98179.78
2023-03-18T10:54:52.615Z,98177.00
2023-03-18T10:57:54.413Z,98166.47
2023-03-18T11:00:55.943Z,98153.13
2023-03-18T11:04:01.203Z,98170.13
2023-03-18T11:07:03.864Z,98157.47
2023-03-18T11:10:15.041Z,98159.84
2023-03-18T11:13:17.276Z,98159.88
2023-03-18T11:16:23.165Z,98142.88
2023-03-18T11:19:32.296Z,98146.66
2023-03-18T11:22:34.305Z,98146.94
2023-03-18T11:25:36.803Z,98142.34
2023-03-18T11:28:38.547Z,98138.31
2023-03-18T11:31:57.874Z,98135.81
2023-03-18T11:35:01.563Z,98132.88
2023-03-18T11:38:04.566Z,98123.50
2023-03-18T11:41:11.002Z,98122.22
2023-03-18T11:44:17.868Z,98128.13
2023-03-18T11:47:22.940Z,98136.81
2023-03-18T11:50:26.207Z,98131.41
2023-03-18T11:53:33.426Z,98144.22
2023-03-18T11:57:01.393Z,98121.53
2023-03-18T12:00:17.520Z,98125.16
2023-03-18T12:03:41.009Z,98150.06
2023-03-18T12:07:08.898Z,98128.44
2023-03-18T12:10:20.367Z,98133.81
2023-03-18T12:13:26.084Z,98126.19
2023-03-18T12:16:41.371Z,98103.53
2023-03-18T12:20:07.296Z,98097.53
2023-03-18T12:23:42.743Z,98108.81
2023-03-18T12:27:27.122Z,98122.66
2023-03-18T12:31:06.475Z,98111.03
2023-03-18T12:34:52.931Z,98113.94
2023-03-18T12:38:32.027Z,98101.47
2023-03-18T12:41:45.918Z,98102.03
2023-03-18T12:44:57.847Z,98106.63
2023-03-18T12:48:05.195Z,98112.34
2023-03-18T12:51:09.976Z,98109.38
2023-03-18T12:54:16.318Z,98099.63
2023-03-18T12:58:00.288Z,98093.50
2023-03-18T13:01:20.151Z,98108.47
2023-03-18T13:04:22.336Z,98092.88
2023-03-18T13:07:37.850Z,98111.38
2023-03-18T13:10:39.351Z,98092.63
2023-03-18T13:13:44.162Z,98094.09
2023-03-18T13:16:46.931Z,98088.44
2023-03-18T13:19:48.446Z,98107.06
2023-03-18T13:23:00.529Z,98091.78
2023-03-18T13:26:17.109Z,98098.44
2023-03-18T13:29:45.055Z,98092.41
2023-03-18T13:32:53.296Z,98106.47
2023-03-18T13:35:57.372Z,98097.50
2023-03-18T13:39:19.539Z,98092.38
2023-03-18T13:42:25.954Z,98102.41
2023-03-18T13:45:37.695Z,98090.34
2023-03-18T13:48:40.527Z,98089.53
2023-03-18T13:51:50.499Z,98087.59
2023-03-18T13:54:52.042Z,98083.94
2023-03-18T13:58:24.260Z,98090.63
2023-03-18T14:01:29.256Z,98091.00
2023-03-18T14:04:32.472Z,98106.38
2023-03-18T14:07:34.826Z,98098.41
2023-03-18T14:10:36.385Z,98102.47
2023-03-18T14:13:37.859Z,98082.63
2023-03-18T14:16:57.929Z,98087.59
2023-03-18T14:20:07.050Z,98080.25
2023-03-18T14:23:29.190Z,98082.44
2023-03-18T14:26:31.095Z,98077.38
2023-03-18T14:29:46.867Z,98075.13
2023-03-18T14:32:57.163Z,98076.09
2023-03-18T14:36:03.232Z,98069.47
2023-03-18T14:39:07.042Z,98056.94
2023-03-18T14:42:32.951Z,98063.88
2023-03-18T14:45:41.651Z,98061.13
2023-03-18T14:48:43.369Z,98054.13
2023-03-18T14:51:44.890Z,98060.13
2023-03-18T14:54:46.731Z,98068.03
2023-03-18T14:57:48.190Z,98064.91
2023-03-18T15:00:55.028Z,98061.50
2023-03-18T15:03:57.047Z,98049.25
2023-03-18T15:07:01.016Z,98055.09
2023-03-18T15:10:21.374Z,98056.69
2023-03-18T15:13:23.576Z,98048.00
2023-03-18T15:16:25.304Z,98053.16
2023-03-18T15:19:29.675Z,98042.97
2023-03-18T15:22:31.905Z,98051.50
2023-03-18T15:25:33.805Z,98046.59
2023-03-18T15:28:35.542Z,98043.44
2023-03-18T15:31:42.624Z,98053.63
2023-03-18T15:34:45.890Z,98040.28
2023-03-18T15:37:48.082Z,98041.50
2023-03-18T15:40:53.333Z,98041.03
2023-03-18T15:43:54.865Z,98048.03
2023-03-18T15:47:13.664Z,98054.72
2023-03-18T15:50:18.590Z,98049.91
2023-03-18T15:53:25.046Z,98055.75
2023-03-18T15:56:32.133Z,98059.78
2023-03-18T15:59:33.610Z,98052.16
2023-03-18T16:02:35.972Z,98066.66
2023-03-18T16:05:38.256Z,98067.09
2023-03-18T16:08:39.907Z,98068.91
2023-03-18T16:11:42.220Z,98058.13
2023-03-18T16:14:43.923Z,98067.56
2023-03-18T16:17:45.704Z,98075.47
2023-03-18T16:20:48.140Z,98074.97
2023-03-18T16:23:49.683Z,98068.88
2023-03-18T16:26:54.804Z,98071.25
2023-03-18T16:29:56.332Z,98081.81
2023-03-18T16:32:58.323Z,98071.84
2023-03-18T16:36:00.217Z,98082.38
2023-03-18T16:39:01.744Z,98083.25
2023-03-18T16:42:06.151Z,98086.88
2023-03-18T16:45:13.856Z,98092.44
2023-03-18T16:48:17.461Z,98099.03
2023-03-18T16:51:19.206Z,98102.50
2023-03-18T16:54:24.770Z,98101.47
2023-03-18T16:57:26.346Z,98104.91
2023-03-18T17:00:32.874Z,98111.78
2023-03-18T17:03:35.118Z,98107.22
2023-03-18T17:06:36.625Z,98110.03
2023-03-18T17:09:38.730Z,98113.28
2023-03-18T17:12:40.139Z,98122.78
2023-03-18T17:15:42.913Z,98114.31
2023-03-18T17:18:44.415Z,98118.25
2023-03-18T17:21:45.927Z,98129.94
2023-03-18T17:24:47.643Z,98133.78
2023-03-18T17:27:50.541Z,98133.50
2023-03-18T17:30:52.307Z,98130.56
2023-03-18T17:33:53.836Z,98134.44
2023-03-18T17:36:56.537Z,98139.88
2023-03-18T17:39:58.175Z,98149.56
2023-03-18T17:43:01.174Z,98140.28
2023-03-18T17:46:03.231Z,98137.97
2023-03-18T17:49:10.391Z,98138.44
2023-03-18T17:52:12.195Z,98134.41
2023-03-18T17:55:22.446Z,98143.91
2023-03-18T17:58:26.506Z,98140.53
2023-03-18T18:01:28.974Z,98142.56
2023-03-18T18:04:31.324Z,98139.16
2023-03-18T18:07:32.774Z,98137.66
2023-03-18T18:10:34.580Z,98135.19
2023-03-18T18:13:36.178Z,98138.91
2023-03-18T18:16:37.891Z,98152.78
2023-03-18T18:19:39.613Z,98149.69
2023-03-18T18:22:43.269Z,98147.16
2023-03-18T18:25:45.141Z,98149.94
2023-03-18T18:28:48.282Z,98153.56
2023-03-18T18:31:50.174Z,98155.44
2023-03-18T18:34:52.028Z,98154.63
2023-03-18T18:37:54.219Z,98150.28
2023-03-18T18:40:56.350Z,98159.13
2023-03-18T18:43:57.909Z,98156.53
2023-03-18T18:47:00.207Z,98158.56
2023-03-18T18:50:01.684Z,98151.72
2023-03-18T18:53:12.463Z,98154.47
2023-03-18T18:56:19.749Z,98163.31
2023-03-18T18:59:30.580Z,98157.25
2023-03-18T19:02:34.197Z,98170.38
2023-03-18T19:05:36.263Z,98162.56
2023-03-18T19:08:38.314Z,98164.19
2023-03-18T19:11:42.958Z,98164.50
2023-03-18T19:14:44.688Z,98163.78
2023-03-18T19:17:46.450Z,98164.69
2023-03-18T19:20:51.042Z,98170.03
2023-03-18T19:23:52.756Z,98178.75
2023-03-18T19:26:59.829Z,98177.88
2023-03-18T19:30:06.989Z,98177.88
2023-03-18T19:33:18.004Z,98183.09
2023-03-18T19:36:30.003Z,98189.19
2023-03-18T19:39:31.714Z,98186.72
2023-03-18T19:42:41.130Z,98178.13
2023-03-18T19:45:46.834Z,98178.22
2023-03-18T19:48:51.467Z,98183.44
2023-03-18T19:51:56.121Z,98186.72
2023-03-18T19:54:57.969Z,98191.88
2023-03-18T19:58:02.307Z,98193.59
2023-03-18T20:01:04.548Z,98188.41
2023-03-18T20:04:06.689Z,98194.47
2023-03-18T20:07:08.446Z,98194.50
2023-03-18T20:10:11.781Z,98201.44
2023-03-18T20:13:15.744Z,98204.03
2023-03-18T20:16:17.821Z,98209.25
2023-03-18T20:19:19.318Z,98200.59
2023-03-18T20:22:29.052Z,98196.28
2023-03-18T20:25:40.513Z,98193.00
2023-03-18T20:28:45.175Z,98199.94
2023-03-18T20:31:46.826Z,98199.09
2023-03-18T20:34:49.277Z,98198.97
2023-03-18T20:37:50.680Z,98219.91
2023-03-18T20:40:52.411Z,98213.00
2023-03-18T20:43:53.848Z,98205.19
2023-03-18T20:46:55.396Z,98207.75
2023-03-18T20:49:57.206Z,98211.22
2023-03-18T20:52:58.952Z,98195.59
2023-03-18T20:56:00.440Z,98209.53
2023-03-18T20:59:04.215Z,98208.66
2023-03-18T21:02:32.966Z,98216.47
2023-03-18T21:05:34.819Z,98216.41
2023-03-18T21:08:37.069Z,98211.19
2023-03-18T21:11:38.979Z,98210.28
2023-03-18T21:14:40.456Z,98218.97
2023-03-18T21:17:42.035Z,98224.19
2023-03-18T21:20:44.602Z,98230.25
2023-03-18T21:23:46.149Z,98233.75
2023-03-18T21:27:01.571Z,98226.78
2023-03-18T21:30:06.156Z,98233.78
2023-03-18T21:33:31.214Z,98231.97
2023-03-18T21:36:32.734Z,98235.44
2023-03-18T21:39:35.051Z,98234.53
2023-03-18T21:42:36.695Z,98236.34
2023-03-18T21:45:38.725Z,98239.00
2023-03-18T21:48:40.314Z,98239.84
2023-03-18T21:51:41.808Z,98242.44
2023-03-18T21:54:43.421Z,98244.13
2023-03-18T21:57:46.920Z,98243.31
2023-03-18T22:00:54.190Z,98249.31
2023-03-18T22:03:55.916Z,98239.91
2023-03-18T22:06:57.513Z,98241.56
2023-03-18T22:10:00.566Z,98234.56
2023-03-18T22:13:02.063Z,98246.72
2023-03-18T22:16:03.746Z,98242.41
2023-03-18T22:19:05.281Z,98246.72
2023-03-18T22:22:12.137Z,98245.03
2023-03-18T22:25:31.251Z,98248.44
2023-03-18T22:28:33.019Z,98245.81
2023-03-18T22:31:34.517Z,98247.56
2023-03-18T22:34:36.268Z,98247.56
2023-03-18T22:37:37.722Z,98241.47
2023-03-18T22:40:39.200Z,98239.06
2023-03-18T22:43:40.853Z,98239.94
2023-03-18T22:46:42.358Z,98237.34
2023-03-18T22:49:43.994Z,98247.81
2023-03-18T22:52:45.501Z,98243.47
2023-03-18T22:55:47.170Z,98233.03
2023-03-18T22:58:48.645Z,98229.53
2023-03-18T23:01:50.171Z,98225.19
2023-03-18T23:04:51.965Z,98223.50
2023-03-18T23:07:53.562Z,98233.03
2023-03-18T23:10:56.437Z,98229.56
2023-03-18T23:13:57.968Z,98217.41
2023-03-18T23:16:59.621Z,98224.38
2023-03-18T23:20:01.198Z,98225.22
2023-03-18T23:23:02.657Z,98226.97
2023-03-18T23:26:04.201Z,98235.66
2023-03-18T23:29:05.662Z,98232.16
2023-03-18T23:32:07.157Z,98230.44
2023-03-18T23:35:09.205Z,98232.16
2023-03-18T23:38:10.933Z,98236.53
2023-03-18T23:41:12.447Z,98243.47
2023-03-18T23:44:13.921Z,98245.22
2023-03-18T23:47:15.780Z,98241.75
2023-03-18T23:50:17.329Z,98247.78
2023-03-18T23:53:18.799Z,98232.19
2023-03-18T23:56:20.556Z,98239.16
2023-03-18T23:59:22.075Z,98252.19
